sensor_id;sensor_type;location;lat;lon;timestamp;temperature;humidity
29321;DHT22;16323;51.130;6.612;2022-07-30T00:02:09;21.00;90.20
29321;DHT22;16323;51.130;6.612;2022-07-30T00:04:35;21.00;90.20
29321;DHT22;16323;51.130;6.612;2022-07-30T00:07:02;21.00;90.00
29321;DHT22;16323;51.130;6.612;2022-07-30T00:09:29;20.90;90.10
29321;DHT22;16323;51.130;6.612;2022-07-30T00:11:56;20.90;90.00
29321;DHT22;16323;51.130;6.612;2022-07-30T00:14:23;20.90;90.10
29321;DHT22;16323;51.130;6.612;2022-07-30T00:16:52;20.90;90.00
29321;DHT22;16323;51.130;6.612;2022-07-30T00:19:19;20.80;90.10
29321;DHT22;16323;51.130;6.612;2022-07-30T00:21:46;20.70;90.30
29321;DHT22;16323;51.130;6.612;2022-07-30T00:24:12;20.80;90.40
29321;DHT22;16323;51.130;6.612;2022-07-30T00:26:39;20.80;90.30
29321;DHT22;16323;51.130;6.612;2022-07-30T00:29:06;20.80;90.40
29321;DHT22;16323;51.130;6.612;2022-07-30T00:31:33;20.70;90.50
29321;DHT22;16323;51.130;6.612;2022-07-30T00:34:02;20.80;90.50
29321;DHT22;16323;51.130;6.612;2022-07-30T00:36:28;20.80;90.30
29321;DHT22;16323;51.130;6.612;2022-07-30T00:38:55;20.80;90.50
29321;DHT22;16323;51.130;6.612;2022-07-30T00:41:23;20.80;90.20
29321;DHT22;16323;51.130;6.612;2022-07-30T00:43:49;20.80;90.20
29321;DHT22;16323;51.130;6.612;2022-07-30T00:46:16;20.80;90.30
29321;DHT22;16323;51.130;6.612;2022-07-30T00:48:44;20.70;90.50
29321;DHT22;16323;51.130;6.612;2022-07-30T00:51:12;20.60;90.80
29321;DHT22;16323;51.130;6.612;2022-07-30T00:53:39;20.60;90.80
29321;DHT22;16323;51.130;6.612;2022-07-30T00:56:06;20.50;91.00
29321;DHT22;16323;51.130;6.612;2022-07-30T00:58:33;20.50;91.20
29321;DHT22;16323;51.130;6.612;2022-07-30T01:01:00;20.40;91.40
29321;DHT22;16323;51.130;6.612;2022-07-30T01:03:26;20.30;91.90
29321;DHT22;16323;51.130;6.612;2022-07-30T01:05:53;20.30;91.40
29321;DHT22;16323;51.130;6.612;2022-07-30T01:08:21;20.20;92.00
29321;DHT22;16323;51.130;6.612;2022-07-30T01:10:48;20.10;91.60
29321;DHT22;16323;51.130;6.612;2022-07-30T01:13:15;20.10;91.60
29321;DHT22;16323;51.130;6.612;2022-07-30T01:15:43;20.10;91.80
29321;DHT22;16323;51.130;6.612;2022-07-30T01:18:10;20.10;92.00
29321;DHT22;16323;51.130;6.612;2022-07-30T01:20:42;20.10;92.00
29321;DHT22;16323;51.130;6.612;2022-07-30T01:23:15;20.10;92.10
29321;DHT22;16323;51.130;6.612;2022-07-30T01:25:51;20.10;92.20
29321;DHT22;16323;51.130;6.612;2022-07-30T01:28:23;20.20;92.10
29321;DHT22;16323;51.130;6.612;2022-07-30T01:30:51;20.20;92.00
29321;DHT22;16323;51.130;6.612;2022-07-30T01:33:21;20.10;91.80
29321;DHT22;16323;51.130;6.612;2022-07-30T01:35:50;20.10;92.00
29321;DHT22;16323;51.130;6.612;2022-07-30T01:38:20;20.10;92.20
29321;DHT22;16323;51.130;6.612;2022-07-30T01:40:50;20.10;91.90
29321;DHT22;16323;51.130;6.612;2022-07-30T01:43:18;20.00;91.40
29321;DHT22;16323;51.130;6.612;2022-07-30T01:45:46;19.90;92.20
29321;DHT22;16323;51.130;6.612;2022-07-30T01:48:17;20.00;92.10
29321;DHT22;16323;51.130;6.612;2022-07-30T01:50:48;19.90;91.70
29321;DHT22;16323;51.130;6.612;2022-07-30T01:53:17;19.90;92.00
29321;DHT22;16323;51.130;6.612;2022-07-30T01:55:45;19.90;91.90
29321;DHT22;16323;51.130;6.612;2022-07-30T01:58:16;19.90;92.20
29321;DHT22;16323;51.130;6.612;2022-07-30T02:00:45;19.90;92.10
29321;DHT22;16323;51.130;6.612;2022-07-30T02:03:14;19.90;92.20
29321;DHT22;16323;51.130;6.612;2022-07-30T02:05:46;19.90;92.30
29321;DHT22;16323;51.130;6.612;2022-07-30T02:08:15;19.90;92.30
29321;DHT22;16323;51.130;6.612;2022-07-30T02:10:46;20.00;92.00
29321;DHT22;16323;51.130;6.612;2022-07-30T02:13:20;20.10;92.30
29321;DHT22;16323;51.130;6.612;2022-07-30T02:15:51;20.20;91.80
29321;DHT22;16323;51.130;6.612;2022-07-30T02:18:24;20.30;91.70
29321;DHT22;16323;51.130;6.612;2022-07-30T02:20:59;20.30;91.40
29321;DHT22;16323;51.130;6.612;2022-07-30T02:23:27;20.30;91.60
29321;DHT22;16323;51.130;6.612;2022-07-30T02:25:56;20.30;91.40
29321;DHT22;16323;51.130;6.612;2022-07-30T02:28:28;20.20;91.60
29321;DHT22;16323;51.130;6.612;2022-07-30T02:30:58;20.20;91.60
29321;DHT22;16323;51.130;6.612;2022-07-30T02:33:27;20.20;91.40
29321;DHT22;16323;51.130;6.612;2022-07-30T02:35:55;20.10;91.20
29321;DHT22;16323;51.130;6.612;2022-07-30T02:38:23;20.10;91.30
29321;DHT22;16323;51.130;6.612;2022-07-30T02:40:53;20.10;91.30
29321;DHT22;16323;51.130;6.612;2022-07-30T02:43:21;20.00;91.30
29321;DHT22;16323;51.130;6.612;2022-07-30T02:45:52;20.00;91.80
29321;DHT22;16323;51.130;6.612;2022-07-30T02:48:20;19.90;91.90
29321;DHT22;16323;51.130;6.612;2022-07-30T02:50:49;19.90;92.10
29321;DHT22;16323;51.130;6.612;2022-07-30T02:53:17;19.90;91.90
29321;DHT22;16323;51.130;6.612;2022-07-30T02:55:46;19.90;92.00
29321;DHT22;16323;51.130;6.612;2022-07-30T02:58:17;20.00;91.70
29321;DHT22;16323;51.130;6.612;2022-07-30T03:00:45;20.00;91.60
29321;DHT22;16323;51.130;6.612;2022-07-30T03:03:15;20.00;91.60
29321;DHT22;16323;51.130;6.612;2022-07-30T03:05:43;20.00;91.90
29321;DHT22;16323;51.130;6.612;2022-07-30T03:08:10;20.00;91.90
29321;DHT22;16323;51.130;6.612;2022-07-30T03:10:38;20.00;91.90
29321;DHT22;16323;51.130;6.612;2022-07-30T03:13:06;20.10;91.80
29321;DHT22;16323;51.130;6.612;2022-07-30T03:15:36;20.10;91.70
29321;DHT22;16323;51.130;6.612;2022-07-30T03:18:10;20.10;91.80
29321;DHT22;16323;51.130;6.612;2022-07-30T03:20:41;20.10;91.60
29321;DHT22;16323;51.130;6.612;2022-07-30T03:23:11;20.10;91.80
29321;DHT22;16323;51.130;6.612;2022-07-30T03:25:39;20.10;91.40
29321;DHT22;16323;51.130;6.612;2022-07-30T03:28:07;20.10;91.70
29321;DHT22;16323;51.130;6.612;2022-07-30T03:30:34;20.10;91.70
29321;DHT22;16323;51.130;6.612;2022-07-30T03:33:01;20.00;91.60
29321;DHT22;16323;51.130;6.612;2022-07-30T03:35:29;19.90;91.90
29321;DHT22;16323;51.130;6.612;2022-07-30T03:37:58;20.00;91.90
29321;DHT22;16323;51.130;6.612;2022-07-30T03:40:25;20.00;92.00
29321;DHT22;16323;51.130;6.612;2022-07-30T03:42:53;20.00;92.00
29321;DHT22;16323;51.130;6.612;2022-07-30T03:45:20;20.10;92.70
29321;DHT22;16323;51.130;6.612;2022-07-30T03:47:47;20.00;92.00
29321;DHT22;16323;51.130;6.612;2022-07-30T03:50:14;20.00;92.30
29321;DHT22;16323;51.130;6.612;2022-07-30T03:52:42;20.00;92.30
29321;DHT22;16323;51.130;6.612;2022-07-30T03:55:11;20.00;92.30
29321;DHT22;16323;51.130;6.612;2022-07-30T03:57:38;20.00;92.50
29321;DHT22;16323;51.130;6.612;2022-07-30T04:00:06;19.90;92.30
29321;DHT22;16323;51.130;6.612;2022-07-30T04:02:40;19.90;92.50
29321;DHT22;16323;51.130;6.612;2022-07-30T04:05:07;19.70;92.80
29321;DHT22;16323;51.130;6.612;2022-07-30T04:07:34;19.70;92.90
29321;DHT22;16323;51.130;6.612;2022-07-30T04:10:00;19.70;93.20
29321;DHT22;16323;51.130;6.612;2022-07-30T04:12:29;19.70;93.90
29321;DHT22;16323;51.130;6.612;2022-07-30T04:14:55;19.70;94.00
29321;DHT22;16323;51.130;6.612;2022-07-30T04:17:25;19.70;94.00
29321;DHT22;16323;51.130;6.612;2022-07-30T04:19:56;19.70;94.00
29321;DHT22;16323;51.130;6.612;2022-07-30T04:22:29;19.60;94.00
29321;DHT22;16323;51.130;6.612;2022-07-30T04:24:57;19.60;94.00
29321;DHT22;16323;51.130;6.612;2022-07-30T04:27:26;19.50;94.40
29321;DHT22;16323;51.130;6.612;2022-07-30T04:29:55;19.40;94.70
29321;DHT22;16323;51.130;6.612;2022-07-30T04:32:22;19.30;95.00
29321;DHT22;16323;51.130;6.612;2022-07-30T04:34:50;19.40;95.20
29321;DHT22;16323;51.130;6.612;2022-07-30T04:37:21;19.40;95.50
29321;DHT22;16323;51.130;6.612;2022-07-30T04:39:48;19.30;95.40
29321;DHT22;16323;51.130;6.612;2022-07-30T04:42:18;19.30;95.80
29321;DHT22;16323;51.130;6.612;2022-07-30T04:44:45;19.30;95.80
29321;DHT22;16323;51.130;6.612;2022-07-30T04:47:14;19.20;96.20
29321;DHT22;16323;51.130;6.612;2022-07-30T04:49:42;19.20;97.30
29321;DHT22;16323;51.130;6.612;2022-07-30T04:52:10;19.30;97.60
29321;DHT22;16323;51.130;6.612;2022-07-30T04:54:40;19.40;97.20
29321;DHT22;16323;51.130;6.612;2022-07-30T04:57:09;19.40;97.50
29321;DHT22;16323;51.130;6.612;2022-07-30T04:59:36;19.40;98.00
29321;DHT22;16323;51.130;6.612;2022-07-30T05:02:05;19.40;98.40
29321;DHT22;16323;51.130;6.612;2022-07-30T05:04:35;19.40;98.80
29321;DHT22;16323;51.130;6.612;2022-07-30T05:07:03;19.40;99.70
29321;DHT22;16323;51.130;6.612;2022-07-30T05:09:31;19.40;99.90
29321;DHT22;16323;51.130;6.612;2022-07-30T05:11:58;19.40;99.90
29321;DHT22;16323;51.130;6.612;2022-07-30T05:14:25;19.30;99.90
29321;DHT22;16323;51.130;6.612;2022-07-30T05:16:53;19.10;99.90
29321;DHT22;16323;51.130;6.612;2022-07-30T05:19:21;19.30;99.90
29321;DHT22;16323;51.130;6.612;2022-07-30T05:21:49;19.40;99.90
29321;DHT22;16323;51.130;6.612;2022-07-30T05:24:16;19.30;99.90
29321;DHT22;16323;51.130;6.612;2022-07-30T05:26:43;19.20;99.90
29321;DHT22;16323;51.130;6.612;2022-07-30T05:29:10;19.10;99.90
29321;DHT22;16323;51.130;6.612;2022-07-30T05:31:37;19.10;99.90
29321;DHT22;16323;51.130;6.612;2022-07-30T05:34:04;19.10;99.90
29321;DHT22;16323;51.130;6.612;2022-07-30T05:36:31;19.30;99.90
29321;DHT22;16323;51.130;6.612;2022-07-30T05:38:59;19.20;99.90
29321;DHT22;16323;51.130;6.612;2022-07-30T05:41:26;19.20;99.90
29321;DHT22;16323;51.130;6.612;2022-07-30T05:43:53;19.10;99.90
29321;DHT22;16323;51.130;6.612;2022-07-30T05:46:20;19.10;99.90
29321;DHT22;16323;51.130;6.612;2022-07-30T05:48:47;19.20;99.90
29321;DHT22;16323;51.130;6.612;2022-07-30T05:51:14;19.10;99.90
29321;DHT22;16323;51.130;6.612;2022-07-30T05:53:41;19.10;99.90
29321;DHT22;16323;51.130;6.612;2022-07-30T05:56:09;19.10;99.90
29321;DHT22;16323;51.130;6.612;2022-07-30T05:58:36;19.10;99.90
29321;DHT22;16323;51.130;6.612;2022-07-30T06:01:03;19.20;99.90
29321;DHT22;16323;51.130;6.612;2022-07-30T06:03:29;19.20;99.90
29321;DHT22;16323;51.130;6.612;2022-07-30T06:05:56;19.30;99.90
29321;DHT22;16323;51.130;6.612;2022-07-30T06:08:23;19.20;99.90
29321;DHT22;16323;51.130;6.612;2022-07-30T06:10:50;19.40;99.90
29321;DHT22;16323;51.130;6.612;2022-07-30T06:13:18;19.30;99.90
29321;DHT22;16323;51.130;6.612;2022-07-30T06:15:44;19.30;99.90
29321;DHT22;16323;51.130;6.612;2022-07-30T06:18:11;19.40;99.90
29321;DHT22;16323;51.130;6.612;2022-07-30T06:20:38;19.40;99.90
29321;DHT22;16323;51.130;6.612;2022-07-30T06:23:04;19.70;99.90
29321;DHT22;16323;51.130;6.612;2022-07-30T06:25:31;19.70;99.90
29321;DHT22;16323;51.130;6.612;2022-07-30T06:27:58;19.70;99.90
29321;DHT22;16323;51.130;6.612;2022-07-30T06:30:26;19.80;99.90
29321;DHT22;16323;51.130;6.612;2022-07-30T06:32:54;19.80;99.90
29321;DHT22;16323;51.130;6.612;2022-07-30T06:35:21;19.70;99.90
29321;DHT22;16323;51.130;6.612;2022-07-30T06:37:48;19.70;99.90
29321;DHT22;16323;51.130;6.612;2022-07-30T06:40:14;19.70;99.90
29321;DHT22;16323;51.130;6.612;2022-07-30T06:42:41;19.70;99.90
29321;DHT22;16323;51.130;6.612;2022-07-30T06:45:09;19.60;99.90
29321;DHT22;16323;51.130;6.612;2022-07-30T06:47:37;19.70;99.90
29321;DHT22;16323;51.130;6.612;2022-07-30T06:50:05;19.80;99.90
29321;DHT22;16323;51.130;6.612;2022-07-30T06:52:32;19.90;99.90
29321;DHT22;16323;51.130;6.612;2022-07-30T06:54:59;19.90;99.90
29321;DHT22;16323;51.130;6.612;2022-07-30T06:57:25;20.00;99.90
29321;DHT22;16323;51.130;6.612;2022-07-30T06:59:52;20.10;99.90
29321;DHT22;16323;51.130;6.612;2022-07-30T07:02:19;20.00;99.90
29321;DHT22;16323;51.130;6.612;2022-07-30T07:04:47;20.00;99.90
29321;DHT22;16323;51.130;6.612;2022-07-30T07:07:14;19.90;99.90
29321;DHT22;16323;51.130;6.612;2022-07-30T07:09:41;20.00;99.90
29321;DHT22;16323;51.130;6.612;2022-07-30T07:12:07;20.10;99.90
29321;DHT22;16323;51.130;6.612;2022-07-30T07:14:34;20.10;99.60
29321;DHT22;16323;51.130;6.612;2022-07-30T07:17:01;20.10;99.90
29321;DHT22;16323;51.130;6.612;2022-07-30T07:19:28;20.10;99.90
29321;DHT22;16323;51.130;6.612;2022-07-30T07:21:56;20.30;99.90
29321;DHT22;16323;51.130;6.612;2022-07-30T07:24:23;20.20;99.80
29321;DHT22;16323;51.130;6.612;2022-07-30T07:26:50;20.30;99.90
29321;DHT22;16323;51.130;6.612;2022-07-30T07:29:17;20.20;99.90
29321;DHT22;16323;51.130;6.612;2022-07-30T07:31:44;20.20;99.70
29321;DHT22;16323;51.130;6.612;2022-07-30T07:34:10;20.30;99.60
29321;DHT22;16323;51.130;6.612;2022-07-30T07:36:37;20.20;99.90
29321;DHT22;16323;51.130;6.612;2022-07-30T07:39:06;20.30;99.80
29321;DHT22;16323;51.130;6.612;2022-07-30T07:41:35;20.30;99.10
29321;DHT22;16323;51.130;6.612;2022-07-30T07:44:03;20.30;98.80
29321;DHT22;16323;51.130;6.612;2022-07-30T07:46:30;20.30;99.10
29321;DHT22;16323;51.130;6.612;2022-07-30T07:48:57;20.40;99.00
29321;DHT22;16323;51.130;6.612;2022-07-30T07:51:24;20.60;98.50
29321;DHT22;16323;51.130;6.612;2022-07-30T07:53:51;20.60;98.10
29321;DHT22;16323;51.130;6.612;2022-07-30T07:56:19;20.70;98.00
29321;DHT22;16323;51.130;6.612;2022-07-30T07:58:46;20.70;97.70
29321;DHT22;16323;51.130;6.612;2022-07-30T08:01:13;20.70;97.60
29321;DHT22;16323;51.130;6.612;2022-07-30T08:03:40;20.70;97.80
29321;DHT22;16323;51.130;6.612;2022-07-30T08:06:07;20.80;97.80
29321;DHT22;16323;51.130;6.612;2022-07-30T08:08:33;20.80;97.10
29321;DHT22;16323;51.130;6.612;2022-07-30T08:11:01;20.80;97.40
29321;DHT22;16323;51.130;6.612;2022-07-30T08:13:29;20.90;97.10
29321;DHT22;16323;51.130;6.612;2022-07-30T08:15:57;20.90;96.20
29321;DHT22;16323;51.130;6.612;2022-07-30T08:18:24;20.90;95.60
29321;DHT22;16323;51.130;6.612;2022-07-30T08:20:51;20.70;96.20
29321;DHT22;16323;51.130;6.612;2022-07-30T08:23:18;20.80;96.00
29321;DHT22;16323;51.130;6.612;2022-07-30T08:25:47;20.90;95.70
29321;DHT22;16323;51.130;6.612;2022-07-30T08:28:13;20.90;95.50
29321;DHT22;16323;51.130;6.612;2022-07-30T08:30:42;21.00;95.10
29321;DHT22;16323;51.130;6.612;2022-07-30T08:33:09;21.10;94.80
29321;DHT22;16323;51.130;6.612;2022-07-30T08:35:35;21.10;93.90
29321;DHT22;16323;51.130;6.612;2022-07-30T08:38:02;20.80;92.90
29321;DHT22;16323;51.130;6.612;2022-07-30T08:40:32;20.70;93.10
29321;DHT22;16323;51.130;6.612;2022-07-30T08:42:59;20.90;92.80
29321;DHT22;16323;51.130;6.612;2022-07-30T08:45:28;21.10;92.50
29321;DHT22;16323;51.130;6.612;2022-07-30T08:47:59;20.90;91.30
29321;DHT22;16323;51.130;6.612;2022-07-30T08:50:26;20.80;92.80
29321;DHT22;16323;51.130;6.612;2022-07-30T08:52:54;21.00;93.30
29321;DHT22;16323;51.130;6.612;2022-07-30T08:55:22;21.00;92.50
29321;DHT22;16323;51.130;6.612;2022-07-30T08:57:49;21.00;92.60
29321;DHT22;16323;51.130;6.612;2022-07-30T09:00:17;21.00;92.00
29321;DHT22;16323;51.130;6.612;2022-07-30T09:02:43;21.20;91.90
29321;DHT22;16323;51.130;6.612;2022-07-30T09:05:12;21.20;90.90
29321;DHT22;16323;51.130;6.612;2022-07-30T09:07:39;21.10;91.20
29321;DHT22;16323;51.130;6.612;2022-07-30T09:10:08;21.10;91.40
29321;DHT22;16323;51.130;6.612;2022-07-30T09:12:37;21.20;91.80
29321;DHT22;16323;51.130;6.612;2022-07-30T09:15:07;21.30;91.60
29321;DHT22;16323;51.130;6.612;2022-07-30T09:17:49;21.40;91.50
29321;DHT22;16323;51.130;6.612;2022-07-30T09:20:19;21.60;91.70
29321;DHT22;16323;51.130;6.612;2022-07-30T09:22:48;21.50;90.70
29321;DHT22;16323;51.130;6.612;2022-07-30T09:25:17;21.40;90.80
29321;DHT22;16323;51.130;6.612;2022-07-30T09:27:57;21.40;91.00
29321;DHT22;16323;51.130;6.612;2022-07-30T09:30:24;21.50;89.30
29321;DHT22;16323;51.130;6.612;2022-07-30T09:32:53;21.40;90.40
29321;DHT22;16323;51.130;6.612;2022-07-30T09:35:22;21.40;90.00
29321;DHT22;16323;51.130;6.612;2022-07-30T09:37:58;21.40;88.50
29321;DHT22;16323;51.130;6.612;2022-07-30T09:40:25;21.50;87.10
29321;DHT22;16323;51.130;6.612;2022-07-30T09:43:02;21.40;85.30
29321;DHT22;16323;51.130;6.612;2022-07-30T09:45:30;21.40;89.50
29321;DHT22;16323;51.130;6.612;2022-07-30T09:47:57;21.50;86.80
29321;DHT22;16323;51.130;6.612;2022-07-30T09:50:25;21.60;84.50
29321;DHT22;16323;51.130;6.612;2022-07-30T09:52:53;21.00;83.40
29321;DHT22;16323;51.130;6.612;2022-07-30T09:55:31;20.80;84.10
29321;DHT22;16323;51.130;6.612;2022-07-30T09:58:00;21.10;83.90
29321;DHT22;16323;51.130;6.612;2022-07-30T10:00:28;21.30;80.60
29321;DHT22;16323;51.130;6.612;2022-07-30T10:02:56;21.10;80.80
29321;DHT22;16323;51.130;6.612;2022-07-30T10:05:26;20.90;80.80
29321;DHT22;16323;51.130;6.612;2022-07-30T10:07:55;20.90;81.50
29321;DHT22;16323;51.130;6.612;2022-07-30T10:10:24;20.90;82.40
29321;DHT22;16323;51.130;6.612;2022-07-30T10:12:52;20.70;81.70
29321;DHT22;16323;51.130;6.612;2022-07-30T10:15:20;21.00;79.50
29321;DHT22;16323;51.130;6.612;2022-07-30T10:17:47;21.40;78.40
29321;DHT22;16323;51.130;6.612;2022-07-30T10:20:15;21.20;76.10
29321;DHT22;16323;51.130;6.612;2022-07-30T10:22:43;21.40;79.10
29321;DHT22;16323;51.130;6.612;2022-07-30T10:25:11;21.50;74.20
29321;DHT22;16323;51.130;6.612;2022-07-30T10:27:38;21.40;73.30
29321;DHT22;16323;51.130;6.612;2022-07-30T10:30:06;21.40;71.50
29321;DHT22;16323;51.130;6.612;2022-07-30T10:32:36;21.40;69.40
29321;DHT22;16323;51.130;6.612;2022-07-30T10:35:04;21.20;72.90
29321;DHT22;16323;51.130;6.612;2022-07-30T10:37:32;21.30;74.70
29321;DHT22;16323;51.130;6.612;2022-07-30T10:40:04;21.30;74.10
29321;DHT22;16323;51.130;6.612;2022-07-30T10:42:50;21.00;76.20
29321;DHT22;16323;51.130;6.612;2022-07-30T10:45:23;21.20;76.30
29321;DHT22;16323;51.130;6.612;2022-07-30T10:47:56;21.80;71.80
29321;DHT22;16323;51.130;6.612;2022-07-30T10:50:24;22.00;69.30
29321;DHT22;16323;51.130;6.612;2022-07-30T10:52:54;21.80;71.00
29321;DHT22;16323;51.130;6.612;2022-07-30T10:55:23;21.50;71.90
29321;DHT22;16323;51.130;6.612;2022-07-30T10:57:58;21.80;69.60
29321;DHT22;16323;51.130;6.612;2022-07-30T11:00:25;21.90;72.80
29321;DHT22;16323;51.130;6.612;2022-07-30T11:03:18;22.10;68.90
29321;DHT22;16323;51.130;6.612;2022-07-30T11:05:47;22.20;66.50
29321;DHT22;16323;51.130;6.612;2022-07-30T11:08:35;22.20;68.90
29321;DHT22;16323;51.130;6.612;2022-07-30T11:11:43;22.30;67.00
29321;DHT22;16323;51.130;6.612;2022-07-30T11:14:11;22.30;65.90
29321;DHT22;16323;51.130;6.612;2022-07-30T11:16:57;22.30;68.50
29321;DHT22;16323;51.130;6.612;2022-07-30T11:19:24;22.40;69.30
29321;DHT22;16323;51.130;6.612;2022-07-30T11:22:22;22.40;72.40
29321;DHT22;16323;51.130;6.612;2022-07-30T11:24:49;22.40;67.90
29321;DHT22;16323;51.130;6.612;2022-07-30T11:27:39;22.40;68.80
29321;DHT22;16323;51.130;6.612;2022-07-30T11:30:32;22.40;64.80
29321;DHT22;16323;51.130;6.612;2022-07-30T11:33:20;22.40;63.60
29321;DHT22;16323;51.130;6.612;2022-07-30T11:36:06;22.50;67.60
29321;DHT22;16323;51.130;6.612;2022-07-30T11:38:53;22.60;67.40
29321;DHT22;16323;51.130;6.612;2022-07-30T11:41:20;22.60;67.00
29321;DHT22;16323;51.130;6.612;2022-07-30T11:44:24;22.70;65.10
29321;DHT22;16323;51.130;6.612;2022-07-30T11:46:51;22.70;67.60
29321;DHT22;16323;51.130;6.612;2022-07-30T11:49:18;22.70;65.20
29321;DHT22;16323;51.130;6.612;2022-07-30T11:51:46;22.70;63.60
29321;DHT22;16323;51.130;6.612;2022-07-30T11:54:14;22.80;61.90
29321;DHT22;16323;51.130;6.612;2022-07-30T11:56:47;22.90;60.10
29321;DHT22;16323;51.130;6.612;2022-07-30T11:59:15;22.80;61.30
29321;DHT22;16323;51.130;6.612;2022-07-30T12:01:42;23.00;60.70
29321;DHT22;16323;51.130;6.612;2022-07-30T12:04:09;23.10;60.40
29321;DHT22;16323;51.130;6.612;2022-07-30T12:06:42;23.00;57.20
29321;DHT22;16323;51.130;6.612;2022-07-30T12:09:10;23.50;57.70
29321;DHT22;16323;51.130;6.612;2022-07-30T12:11:37;23.60;57.50
29321;DHT22;16323;51.130;6.612;2022-07-30T12:14:04;23.30;58.00
29321;DHT22;16323;51.130;6.612;2022-07-30T12:16:33;23.00;59.60
29321;DHT22;16323;51.130;6.612;2022-07-30T12:19:01;22.70;61.40
29321;DHT22;16323;51.130;6.612;2022-07-30T12:21:28;22.40;63.20
29321;DHT22;16323;51.130;6.612;2022-07-30T12:23:56;22.40;68.70
29321;DHT22;16323;51.130;6.612;2022-07-30T12:26:24;22.40;65.90
29321;DHT22;16323;51.130;6.612;2022-07-30T12:28:52;22.80;62.40
29321;DHT22;16323;51.130;6.612;2022-07-30T12:31:19;23.00;62.10
29321;DHT22;16323;51.130;6.612;2022-07-30T12:33:47;23.00;61.90
29321;DHT22;16323;51.130;6.612;2022-07-30T12:36:25;22.90;63.40
29321;DHT22;16323;51.130;6.612;2022-07-30T12:38:52;22.90;62.90
29321;DHT22;16323;51.130;6.612;2022-07-30T12:41:19;23.00;62.70
29321;DHT22;16323;51.130;6.612;2022-07-30T12:43:47;23.20;62.90
29321;DHT22;16323;51.130;6.612;2022-07-30T12:46:16;23.20;61.80
29321;DHT22;16323;51.130;6.612;2022-07-30T12:48:52;23.20;62.50
29321;DHT22;16323;51.130;6.612;2022-07-30T12:51:20;23.20;62.90
29321;DHT22;16323;51.130;6.612;2022-07-30T12:53:49;23.20;62.80
29321;DHT22;16323;51.130;6.612;2022-07-30T12:56:18;23.10;62.20
29321;DHT22;16323;51.130;6.612;2022-07-30T12:58:45;23.10;61.50
29321;DHT22;16323;51.130;6.612;2022-07-30T13:01:12;23.20;61.30
29321;DHT22;16323;51.130;6.612;2022-07-30T13:03:39;23.20;60.70
29321;DHT22;16323;51.130;6.612;2022-07-30T13:06:16;23.30;60.80
29321;DHT22;16323;51.130;6.612;2022-07-30T13:08:50;23.30;61.40
29321;DHT22;16323;51.130;6.612;2022-07-30T13:11:19;23.20;61.80
29321;DHT22;16323;51.130;6.612;2022-07-30T13:13:46;23.30;61.40
29321;DHT22;16323;51.130;6.612;2022-07-30T13:16:14;23.40;60.80
29321;DHT22;16323;51.130;6.612;2022-07-30T13:18:41;23.30;61.70
29321;DHT22;16323;51.130;6.612;2022-07-30T13:21:08;23.40;62.20
29321;DHT22;16323;51.130;6.612;2022-07-30T13:23:38;23.60;60.30
29321;DHT22;16323;51.130;6.612;2022-07-30T13:26:06;23.60;59.80
29321;DHT22;16323;51.130;6.612;2022-07-30T13:28:33;23.50;60.70
29321;DHT22;16323;51.130;6.612;2022-07-30T13:31:00;23.40;63.70
29321;DHT22;16323;51.130;6.612;2022-07-30T13:33:27;23.40;62.20
29321;DHT22;16323;51.130;6.612;2022-07-30T13:35:54;23.30;62.10
29321;DHT22;16323;51.130;6.612;2022-07-30T13:38:21;23.40;61.90
29321;DHT22;16323;51.130;6.612;2022-07-30T13:40:49;23.40;62.20
29321;DHT22;16323;51.130;6.612;2022-07-30T13:43:16;23.40;63.80
29321;DHT22;16323;51.130;6.612;2022-07-30T13:45:43;23.50;61.30
29321;DHT22;16323;51.130;6.612;2022-07-30T13:48:10;23.60;62.30
29321;DHT22;16323;51.130;6.612;2022-07-30T13:50:37;23.60;59.40
29321;DHT22;16323;51.130;6.612;2022-07-30T13:53:04;23.60;59.40
29321;DHT22;16323;51.130;6.612;2022-07-30T13:55:30;23.60;60.80
29321;DHT22;16323;51.130;6.612;2022-07-30T13:57:59;23.50;60.20
29321;DHT22;16323;51.130;6.612;2022-07-30T14:00:26;23.60;60.50
29321;DHT22;16323;51.130;6.612;2022-07-30T14:02:57;23.80;60.40
29321;DHT22;16323;51.130;6.612;2022-07-30T14:05:24;23.90;62.10
29321;DHT22;16323;51.130;6.612;2022-07-30T14:07:51;23.80;62.20
29321;DHT22;16323;51.130;6.612;2022-07-30T14:10:18;23.80;63.20
29321;DHT22;16323;51.130;6.612;2022-07-30T14:12:46;23.80;63.60
29321;DHT22;16323;51.130;6.612;2022-07-30T14:15:14;23.70;65.50
29321;DHT22;16323;51.130;6.612;2022-07-30T14:17:41;23.60;65.20
29321;DHT22;16323;51.130;6.612;2022-07-30T14:20:08;23.60;64.00
29321;DHT22;16323;51.130;6.612;2022-07-30T14:22:36;23.60;65.80
29321;DHT22;16323;51.130;6.612;2022-07-30T14:25:03;23.40;72.50
29321;DHT22;16323;51.130;6.612;2022-07-30T14:27:30;23.40;68.70
29321;DHT22;16323;51.130;6.612;2022-07-30T14:29:57;23.40;71.60
29321;DHT22;16323;51.130;6.612;2022-07-30T14:32:25;23.20;72.00
29321;DHT22;16323;51.130;6.612;2022-07-30T14:34:53;23.40;69.40
29321;DHT22;16323;51.130;6.612;2022-07-30T14:37:19;23.40;71.00
29321;DHT22;16323;51.130;6.612;2022-07-30T14:39:46;23.70;66.50
29321;DHT22;16323;51.130;6.612;2022-07-30T14:42:13;23.50;78.20
29321;DHT22;16323;51.130;6.612;2022-07-30T14:44:40;23.10;75.70
29321;DHT22;16323;51.130;6.612;2022-07-30T14:47:07;23.00;76.90
29321;DHT22;16323;51.130;6.612;2022-07-30T14:49:35;23.20;73.50
29321;DHT22;16323;51.130;6.612;2022-07-30T14:52:01;23.80;65.40
29321;DHT22;16323;51.130;6.612;2022-07-30T14:54:28;23.90;66.80
29321;DHT22;16323;51.130;6.612;2022-07-30T14:56:56;24.00;66.00
29321;DHT22;16323;51.130;6.612;2022-07-30T14:59:23;24.20;63.70
29321;DHT22;16323;51.130;6.612;2022-07-30T15:01:50;24.70;58.80
29321;DHT22;16323;51.130;6.612;2022-07-30T15:04:17;26.20;54.80
29321;DHT22;16323;51.130;6.612;2022-07-30T15:06:51;26.60;52.50
29321;DHT22;16323;51.130;6.612;2022-07-30T15:09:18;26.00;57.40
29321;DHT22;16323;51.130;6.612;2022-07-30T15:11:45;25.60;59.10
29321;DHT22;16323;51.130;6.612;2022-07-30T15:14:12;25.10;57.70
29321;DHT22;16323;51.130;6.612;2022-07-30T15:16:39;25.20;60.00
29321;DHT22;16323;51.130;6.612;2022-07-30T15:19:06;25.20;63.50
29321;DHT22;16323;51.130;6.612;2022-07-30T15:21:33;25.00;64.50
29321;DHT22;16323;51.130;6.612;2022-07-30T15:24:01;24.80;63.00
29321;DHT22;16323;51.130;6.612;2022-07-30T15:26:27;24.80;67.80
29321;DHT22;16323;51.130;6.612;2022-07-30T15:28:54;24.70;69.70
29321;DHT22;16323;51.130;6.612;2022-07-30T15:31:21;26.20;54.10
29321;DHT22;16323;51.130;6.612;2022-07-30T15:33:48;26.10;54.50
29321;DHT22;16323;51.130;6.612;2022-07-30T15:36:14;26.40;53.20
29321;DHT22;16323;51.130;6.612;2022-07-30T15:38:41;26.70;51.20
29321;DHT22;16323;51.130;6.612;2022-07-30T15:41:10;27.10;51.60